sensor_id;sensor_type;location;lat;lon;timestamp;temperature;humidity
19415;DHT22;9843;48.882;12.592;2022-10-17T00:00:42;13.40;99.90
19415;DHT22;9843;48.882;12.592;2022-10-17T00:03:09;13.40;99.90
19415;DHT22;9843;48.882;12.592;2022-10-17T00:05:39;13.30;99.90
19415;DHT22;9843;48.882;12.592;2022-10-17T00:08:06;13.20;99.90
19415;DHT22;9843;48.882;12.592;2022-10-17T00:10:37;13.10;99.90
19415;DHT22;9843;48.882;12.592;2022-10-17T00:13:05;13.10;99.90
19415;DHT22;9843;48.882;12.592;2022-10-17T00:15:32;12.90;99.90
19415;DHT22;9843;48.882;12.592;2022-10-17T00:17:59;12.90;99.90
19415;DHT22;9843;48.882;12.592;2022-10-17T00:20:26;12.80;99.90
19415;DHT22;9843;48.882;12.592;2022-10-17T00:22:55;12.70;99.90
19415;DHT22;9843;48.882;12.592;2022-10-17T00:25:21;12.70;99.90
19415;DHT22;9843;48.882;12.592;2022-10-17T00:27:50;12.60;99.90
19415;DHT22;9843;48.882;12.592;2022-10-17T00:30:16;12.60;99.90
19415;DHT22;9843;48.882;12.592;2022-10-17T00:32:43;12.50;99.90
19415;DHT22;9843;48.882;12.592;2022-10-17T00:35:10;12.50;99.90
19415;DHT22;9843;48.882;12.592;2022-10-17T00:37:37;12.40;99.90
19415;DHT22;9843;48.882;12.592;2022-10-17T00:40:04;12.40;99.90
19415;DHT22;9843;48.882;12.592;2022-10-17T00:42:31;12.40;99.90
19415;DHT22;9843;48.882;12.592;2022-10-17T00:45:14;12.30;99.90
19415;DHT22;9843;48.882;12.592;2022-10-17T00:47:42;12.30;99.90
19415;DHT22;9843;48.882;12.592;2022-10-17T00:50:10;12.30;99.90
19415;DHT22;9843;48.882;12.592;2022-10-17T00:52:37;12.30;99.90
19415;DHT22;9843;48.882;12.592;2022-10-17T00:55:10;12.30;99.90
19415;DHT22;9843;48.882;12.592;2022-10-17T00:57:38;12.20;99.90
19415;DHT22;9843;48.882;12.592;2022-10-17T01:00:09;12.20;99.90
19415;DHT22;9843;48.882;12.592;2022-10-17T01:02:37;12.20;99.90
19415;DHT22;9843;48.882;12.592;2022-10-17T01:05:05;12.20;99.90
19415;DHT22;9843;48.882;12.592;2022-10-17T01:07:33;12.10;99.90
19415;DHT22;9843;48.882;12.592;2022-10-17T01:10:01;12.10;99.90
19415;DHT22;9843;48.882;12.592;2022-10-17T01:12:34;12.10;99.90
19415;DHT22;9843;48.882;12.592;2022-10-17T01:15:11;12.10;99.90
19415;DHT22;9843;48.882;12.592;2022-10-17T01:17:50;12.10;99.90
19415;DHT22;9843;48.882;12.592;2022-10-17T01:20:51;12.10;99.90
19415;DHT22;9843;48.882;12.592;2022-10-17T01:23:34;12.10;99.90
19415;DHT22;9843;48.882;12.592;2022-10-17T01:26:13;12.00;99.90
19415;DHT22;9843;48.882;12.592;2022-10-17T01:29:02;12.00;99.90
19415;DHT22;9843;48.882;12.592;2022-10-17T01:31:35;12.00;99.90
19415;DHT22;9843;48.882;12.592;2022-10-17T01:34:08;12.00;99.90
19415;DHT22;9843;48.882;12.592;2022-10-17T01:36:40;12.00;99.90
19415;DHT22;9843;48.882;12.592;2022-10-17T01:39:14;12.10;99.90
19415;DHT22;9843;48.882;12.592;2022-10-17T01:41:45;12.10;99.90
19415;DHT22;9843;48.882;12.592;2022-10-17T01:44:18;12.10;99.90
19415;DHT22;9843;48.882;12.592;2022-10-17T01:46:49;12.10;99.90
19415;DHT22;9843;48.882;12.592;2022-10-17T01:49:18;12.10;99.90
19415;DHT22;9843;48.882;12.592;2022-10-17T01:51:50;12.10;99.90
19415;DHT22;9843;48.882;12.592;2022-10-17T01:54:22;12.10;99.90
19415;DHT22;9843;48.882;12.592;2022-10-17T01:56:53;12.10;99.90
19415;DHT22;9843;48.882;12.592;2022-10-17T01:59:24;12.10;99.90
19415;DHT22;9843;48.882;12.592;2022-10-17T02:01:55;12.20;99.90
19415;DHT22;9843;48.882;12.592;2022-10-17T02:04:24;12.20;99.90
19415;DHT22;9843;48.882;12.592;2022-10-17T02:06:51;12.20;99.90
19415;DHT22;9843;48.882;12.592;2022-10-17T02:09:20;12.20;99.90
19415;DHT22;9843;48.882;12.592;2022-10-17T02:11:56;12.20;99.90
19415;DHT22;9843;48.882;12.592;2022-10-17T02:14:34;12.20;99.90
19415;DHT22;9843;48.882;12.592;2022-10-17T02:17:13;12.20;99.90
19415;DHT22;9843;48.882;12.592;2022-10-17T02:19:52;12.20;99.90
19415;DHT22;9843;48.882;12.592;2022-10-17T02:22:26;12.10;99.90
19415;DHT22;9843;48.882;12.592;2022-10-17T02:25:01;12.10;99.90
19415;DHT22;9843;48.882;12.592;2022-10-17T02:27:33;12.10;99.90
19415;DHT22;9843;48.882;12.592;2022-10-17T02:30:09;12.00;99.90
19415;DHT22;9843;48.882;12.592;2022-10-17T02:32:42;12.00;99.90
19415;DHT22;9843;48.882;12.592;2022-10-17T02:35:12;12.00;99.90
19415;DHT22;9843;48.882;12.592;2022-10-17T02:37:41;12.00;99.90
19415;DHT22;9843;48.882;12.592;2022-10-17T02:40:10;12.00;99.90
19415;DHT22;9843;48.882;12.592;2022-10-17T02:42:39;12.00;99.90
19415;DHT22;9843;48.882;12.592;2022-10-17T02:45:08;12.00;99.90
19415;DHT22;9843;48.882;12.592;2022-10-17T02:47:42;11.90;99.90
19415;DHT22;9843;48.882;12.592;2022-10-17T02:50:10;11.90;99.90
19415;DHT22;9843;48.882;12.592;2022-10-17T02:52:42;11.90;99.90
19415;DHT22;9843;48.882;12.592;2022-10-17T02:55:16;11.80;99.90
19415;DHT22;9843;48.882;12.592;2022-10-17T02:57:46;11.80;99.90
19415;DHT22;9843;48.882;12.592;2022-10-17T03:00:15;11.70;99.90
19415;DHT22;9843;48.882;12.592;2022-10-17T03:02:46;11.70;99.90
19415;DHT22;9843;48.882;12.592;2022-10-17T03:05:15;11.70;99.90
19415;DHT22;9843;48.882;12.592;2022-10-17T03:07:42;11.60;99.90
19415;DHT22;9843;48.882;12.592;2022-10-17T03:10:09;11.60;99.90
19415;DHT22;9843;48.882;12.592;2022-10-17T03:12:36;11.60;99.90
19415;DHT22;9843;48.882;12.592;2022-10-17T03:15:04;11.60;99.90
19415;DHT22;9843;48.882;12.592;2022-10-17T03:17:31;11.60;99.90
19415;DHT22;9843;48.882;12.592;2022-10-17T03:19:59;11.60;99.90
19415;DHT22;9843;48.882;12.592;2022-10-17T03:22:26;11.50;99.90
19415;DHT22;9843;48.882;12.592;2022-10-17T03:24:53;11.50;99.90
19415;DHT22;9843;48.882;12.592;2022-10-17T03:27:19;11.40;99.90
19415;DHT22;9843;48.882;12.592;2022-10-17T03:29:46;11.40;99.90
19415;DHT22;9843;48.882;12.592;2022-10-17T03:32:13;11.40;99.90
19415;DHT22;9843;48.882;12.592;2022-10-17T03:34:40;11.40;99.90
19415;DHT22;9843;48.882;12.592;2022-10-17T03:37:08;11.40;99.90
19415;DHT22;9843;48.882;12.592;2022-10-17T03:39:34;11.30;99.90
19415;DHT22;9843;48.882;12.592;2022-10-17T03:42:01;11.30;99.90
19415;DHT22;9843;48.882;12.592;2022-10-17T03:44:28;11.20;99.90
19415;DHT22;9843;48.882;12.592;2022-10-17T03:46:55;11.30;99.90
19415;DHT22;9843;48.882;12.592;2022-10-17T03:49:22;11.30;99.90
19415;DHT22;9843;48.882;12.592;2022-10-17T03:51:48;11.20;99.90
19415;DHT22;9843;48.882;12.592;2022-10-17T03:54:16;11.20;99.90
19415;DHT22;9843;48.882;12.592;2022-10-17T03:56:43;11.20;99.90
19415;DHT22;9843;48.882;12.592;2022-10-17T03:59:12;11.20;99.90
19415;DHT22;9843;48.882;12.592;2022-10-17T04:01:39;11.10;99.90
19415;DHT22;9843;48.882;12.592;2022-10-17T04:04:05;11.10;99.90
19415;DHT22;9843;48.882;12.592;2022-10-17T04:06:32;11.10;99.90
19415;DHT22;9843;48.882;12.592;2022-10-17T04:08:59;11.00;99.90
19415;DHT22;9843;48.882;12.592;2022-10-17T04:11:27;11.00;99.90
19415;DHT22;9843;48.882;12.592;2022-10-17T04:13:55;11.10;99.90
19415;DHT22;9843;48.882;12.592;2022-10-17T04:16:24;11.10;99.90
19415;DHT22;9843;48.882;12.592;2022-10-17T04:18:52;11.10;99.90
19415;DHT22;9843;48.882;12.592;2022-10-17T04:21:19;11.00;99.90
19415;DHT22;9843;48.882;12.592;2022-10-17T04:23:46;11.00;99.90
19415;DHT22;9843;48.882;12.592;2022-10-17T04:26:13;11.00;99.90
19415;DHT22;9843;48.882;12.592;2022-10-17T04:28:41;10.90;99.90
19415;DHT22;9843;48.882;12.592;2022-10-17T04:31:11;10.90;99.90
19415;DHT22;9843;48.882;12.592;2022-10-17T04:33:38;10.90;99.90
19415;DHT22;9843;48.882;12.592;2022-10-17T04:36:09;10.80;99.90
19415;DHT22;9843;48.882;12.592;2022-10-17T04:38:36;10.80;99.90
19415;DHT22;9843;48.882;12.592;2022-10-17T04:41:04;10.80;99.90
19415;DHT22;9843;48.882;12.592;2022-10-17T04:43:32;10.70;99.90
19415;DHT22;9843;48.882;12.592;2022-10-17T04:46:02;10.70;99.90
19415;DHT22;9843;48.882;12.592;2022-10-17T04:48:33;10.70;99.90
19415;DHT22;9843;48.882;12.592;2022-10-17T04:51:01;10.70;99.90
19415;DHT22;9843;48.882;12.592;2022-10-17T04:53:30;10.70;99.90
19415;DHT22;9843;48.882;12.592;2022-10-17T04:55:57;10.70;99.90
19415;DHT22;9843;48.882;12.592;2022-10-17T04:58:23;10.70;99.90
19415;DHT22;9843;48.882;12.592;2022-10-17T05:00:50;10.70;99.90
19415;DHT22;9843;48.882;12.592;2022-10-17T05:03:19;10.70;99.90
19415;DHT22;9843;48.882;12.592;2022-10-17T05:05:46;10.70;99.90
19415;DHT22;9843;48.882;12.592;2022-10-17T05:08:13;10.70;99.90
19415;DHT22;9843;48.882;12.592;2022-10-17T05:10:41;10.70;99.90
19415;DHT22;9843;48.882;12.592;2022-10-17T05:13:08;10.70;99.90
19415;DHT22;9843;48.882;12.592;2022-10-17T05:15:36;10.80;99.90
19415;DHT22;9843;48.882;12.592;2022-10-17T05:18:03;10.80;99.90
19415;DHT22;9843;48.882;12.592;2022-10-17T05:20:32;10.80;99.90
19415;DHT22;9843;48.882;12.592;2022-10-17T05:22:59;10.80;99.90
19415;DHT22;9843;48.882;12.592;2022-10-17T05:25:26;10.80;99.90
19415;DHT22;9843;48.882;12.592;2022-10-17T05:27:53;10.80;99.90
19415;DHT22;9843;48.882;12.592;2022-10-17T05:30:19;10.70;99.90
19415;DHT22;9843;48.882;12.592;2022-10-17T05:32:46;10.70;99.90
19415;DHT22;9843;48.882;12.592;2022-10-17T05:35:13;10.70;99.90
19415;DHT22;9843;48.882;12.592;2022-10-17T05:37:41;10.70;99.90
19415;DHT22;9843;48.882;12.592;2022-10-17T05:40:08;10.70;99.90
19415;DHT22;9843;48.882;12.592;2022-10-17T05:42:35;10.70;99.90
19415;DHT22;9843;48.882;12.592;2022-10-17T05:45:03;10.70;99.90
19415;DHT22;9843;48.882;12.592;2022-10-17T05:47:29;10.70;99.90
19415;DHT22;9843;48.882;12.592;2022-10-17T05:49:56;10.80;99.90
19415;DHT22;9843;48.882;12.592;2022-10-17T05:52:23;10.80;99.90
19415;DHT22;9843;48.882;12.592;2022-10-17T05:54:51;10.80;99.90
19415;DHT22;9843;48.882;12.592;2022-10-17T05:57:18;10.90;99.90
19415;DHT22;9843;48.882;12.592;2022-10-17T05:59:45;10.90;99.90
19415;DHT22;9843;48.882;12.592;2022-10-17T06:02:12;10.90;99.90
19415;DHT22;9843;48.882;12.592;2022-10-17T06:04:39;10.90;99.90
19415;DHT22;9843;48.882;12.592;2022-10-17T06:07:10;11.00;99.90
19415;DHT22;9843;48.882;12.592;2022-10-17T06:09:36;11.00;99.90
19415;DHT22;9843;48.882;12.592;2022-10-17T06:12:05;11.10;99.90
19415;DHT22;9843;48.882;12.592;2022-10-17T06:14:32;11.30;99.90
19415;DHT22;9843;48.882;12.592;2022-10-17T06:16:59;11.60;99.90
19415;DHT22;9843;48.882;12.592;2022-10-17T06:19:26;11.80;99.90
19415;DHT22;9843;48.882;12.592;2022-10-17T06:21:52;12.00;99.90
19415;DHT22;9843;48.882;12.592;2022-10-17T06:24:19;12.30;99.90
19415;DHT22;9843;48.882;12.592;2022-10-17T06:26:46;12.50;99.90
19415;DHT22;9843;48.882;12.592;2022-10-17T06:29:16;12.70;99.90
19415;DHT22;9843;48.882;12.592;2022-10-17T06:31:43;13.00;99.90
19415;DHT22;9843;48.882;12.592;2022-10-17T06:34:10;13.10;99.90
19415;DHT22;9843;48.882;12.592;2022-10-17T06:36:36;13.30;99.90
19415;DHT22;9843;48.882;12.592;2022-10-17T06:39:03;13.60;99.90
19415;DHT22;9843;48.882;12.592;2022-10-17T06:41:30;13.80;99.90
19415;DHT22;9843;48.882;12.592;2022-10-17T06:43:57;14.20;99.90
19415;DHT22;9843;48.882;12.592;2022-10-17T06:46:25;14.70;99.90
19415;DHT22;9843;48.882;12.592;2022-10-17T06:48:54;15.00;99.90
19415;DHT22;9843;48.882;12.592;2022-10-17T06:51:21;15.40;99.90
19415;DHT22;9843;48.882;12.592;2022-10-17T06:53:47;15.80;99.90
19415;DHT22;9843;48.882;12.592;2022-10-17T06:56:14;16.30;99.90
19415;DHT22;9843;48.882;12.592;2022-10-17T06:58:41;16.60;99.90
19415;DHT22;9843;48.882;12.592;2022-10-17T07:01:10;16.90;99.90
19415;DHT22;9843;48.882;12.592;2022-10-17T07:03:39;17.40;99.90
19415;DHT22;9843;48.882;12.592;2022-10-17T07:06:06;18.00;99.90
19415;DHT22;9843;48.882;12.592;2022-10-17T07:08:35;18.80;99.90
19415;DHT22;9843;48.882;12.592;2022-10-17T07:11:08;19.60;99.90
19415;DHT22;9843;48.882;12.592;2022-10-17T07:13:35;20.30;99.90
19415;DHT22;9843;48.882;12.592;2022-10-17T07:16:02;20.70;99.90
19415;DHT22;9843;48.882;12.592;2022-10-17T07:21:00;21.10;99.90
19415;DHT22;9843;48.882;12.592;2022-10-17T07:23:28;21.40;99.90
19415;DHT22;9843;48.882;12.592;2022-10-17T07:25:58;21.50;99.90
19415;DHT22;9843;48.882;12.592;2022-10-17T07:28:26;21.60;99.90
19415;DHT22;9843;48.882;12.592;2022-10-17T07:30:53;21.20;99.90
19415;DHT22;9843;48.882;12.592;2022-10-17T07:33:19;21.70;99.90
19415;DHT22;9843;48.882;12.592;2022-10-17T07:35:46;22.00;99.90
19415;DHT22;9843;48.882;12.592;2022-10-17T07:38:14;21.70;99.90
19415;DHT22;9843;48.882;12.592;2022-10-17T07:40:41;21.20;99.90
19415;DHT22;9843;48.882;12.592;2022-10-17T07:43:08;21.50;99.90
19415;DHT22;9843;48.882;12.592;2022-10-17T07:45:35;21.90;99.90
19415;DHT22;9843;48.882;12.592;2022-10-17T07:48:01;21.30;99.90
19415;DHT22;9843;48.882;12.592;2022-10-17T07:50:28;21.00;99.90
19415;DHT22;9843;48.882;12.592;2022-10-17T07:52:56;20.60;99.90
19415;DHT22;9843;48.882;12.592;2022-10-17T07:55:24;20.90;99.90
19415;DHT22;9843;48.882;12.592;2022-10-17T07:57:51;20.90;99.90
19415;DHT22;9843;48.882;12.592;2022-10-17T08:00:17;21.30;99.90
19415;DHT22;9843;48.882;12.592;2022-10-17T08:02:44;21.90;99.90
19415;DHT22;9843;48.882;12.592;2022-10-17T08:05:11;22.30;99.90
19415;DHT22;9843;48.882;12.592;2022-10-17T08:07:38;22.50;99.90
19415;DHT22;9843;48.882;12.592;2022-10-17T08:10:06;22.40;99.90
19415;DHT22;9843;48.882;12.592;2022-10-17T08:12:35;21.80;99.90
19415;DHT22;9843;48.882;12.592;2022-10-17T08:15:02;20.70;99.90
19415;DHT22;9843;48.882;12.592;2022-10-17T08:17:29;20.60;99.90
19415;DHT22;9843;48.882;12.592;2022-10-17T08:19:55;20.70;99.90
19415;DHT22;9843;48.882;12.592;2022-10-17T08:22:22;21.30;99.90
19415;DHT22;9843;48.882;12.592;2022-10-17T08:24:49;21.20;99.90
19415;DHT22;9843;48.882;12.592;2022-10-17T08:27:16;21.40;99.90
19415;DHT22;9843;48.882;12.592;2022-10-17T08:29:49;21.10;99.90
19415;DHT22;9843;48.882;12.592;2022-10-17T08:32:18;21.80;99.90
19415;DHT22;9843;48.882;12.592;2022-10-17T08:34:45;22.80;99.90
19415;DHT22;9843;48.882;12.592;2022-10-17T08:37:12;22.90;99.90
19415;DHT22;9843;48.882;12.592;2022-10-17T08:39:39;22.50;99.90
19415;DHT22;9843;48.882;12.592;2022-10-17T08:42:28;22.80;99.90
19415;DHT22;9843;48.882;12.592;2022-10-17T08:45:05;23.20;99.90
19415;DHT22;9843;48.882;12.592;2022-10-17T08:47:38;22.90;99.90
19415;DHT22;9843;48.882;12.592;2022-10-17T08:50:09;23.40;99.90
19415;DHT22;9843;48.882;12.592;2022-10-17T08:52:41;23.00;99.90
19415;DHT22;9843;48.882;12.592;2022-10-17T08:55:14;22.80;99.90
19415;DHT22;9843;48.882;12.592;2022-10-17T08:57:41;21.80;99.90
19415;DHT22;9843;48.882;12.592;2022-10-17T09:00:15;21.30;99.90
19415;DHT22;9843;48.882;12.592;2022-10-17T09:02:56;21.00;99.90
19415;DHT22;9843;48.882;12.592;2022-10-17T09:05:32;20.80;99.90
19415;DHT22;9843;48.882;12.592;2022-10-17T09:08:17;20.80;99.90
19415;DHT22;9843;48.882;12.592;2022-10-17T09:10:55;21.20;99.90
19415;DHT22;9843;48.882;12.592;2022-10-17T09:13:31;21.60;99.90
19415;DHT22;9843;48.882;12.592;2022-10-17T09:16:14;21.10;99.90
19415;DHT22;9843;48.882;12.592;2022-10-17T09:18:55;21.10;99.90
19415;DHT22;9843;48.882;12.592;2022-10-17T09:21:30;21.70;99.90
19415;DHT22;9843;48.882;12.592;2022-10-17T09:24:01;21.60;99.90
19415;DHT22;9843;48.882;12.592;2022-10-17T09:26:29;22.20;99.90
19415;DHT22;9843;48.882;12.592;2022-10-17T09:28:58;23.50;99.90
19415;DHT22;9843;48.882;12.592;2022-10-17T09:31:31;24.50;99.90
19415;DHT22;9843;48.882;12.592;2022-10-17T09:34:00;25.00;99.90
19415;DHT22;9843;48.882;12.592;2022-10-17T09:36:30;24.70;99.90
19415;DHT22;9843;48.882;12.592;2022-10-17T09:38:59;24.90;99.90
19415;DHT22;9843;48.882;12.592;2022-10-17T09:41:31;24.10;99.90
19415;DHT22;9843;48.882;12.592;2022-10-17T09:44:13;24.20;99.90
19415;DHT22;9843;48.882;12.592;2022-10-17T09:46:45;23.50;99.90
19415;DHT22;9843;48.882;12.592;2022-10-17T09:49:17;23.10;99.90
19415;DHT22;9843;48.882;12.592;2022-10-17T09:51:44;22.80;99.90
19415;DHT22;9843;48.882;12.592;2022-10-17T09:54:18;22.70;99.90
19415;DHT22;9843;48.882;12.592;2022-10-17T09:57:00;23.00;99.90
19415;DHT22;9843;48.882;12.592;2022-10-17T09:59:32;22.80;99.90
19415;DHT22;9843;48.882;12.592;2022-10-17T10:02:16;23.40;99.90
19415;DHT22;9843;48.882;12.592;2022-10-17T10:04:52;23.90;99.90
19415;DHT22;9843;48.882;12.592;2022-10-17T10:07:19;23.60;99.90
19415;DHT22;9843;48.882;12.592;2022-10-17T10:09:47;23.00;99.90
19415;DHT22;9843;48.882;12.592;2022-10-17T10:12:17;23.00;99.90
19415;DHT22;9843;48.882;12.592;2022-10-17T10:14:45;23.60;99.90
19415;DHT22;9843;48.882;12.592;2022-10-17T10:17:33;24.70;99.90
19415;DHT22;9843;48.882;12.592;2022-10-17T10:20:02;24.90;99.90
19415;DHT22;9843;48.882;12.592;2022-10-17T10:22:29;25.30;99.90
19415;DHT22;9843;48.882;12.592;2022-10-17T10:25:14;25.50;99.90
19415;DHT22;9843;48.882;12.592;2022-10-17T10:27:43;26.80;99.90
19415;DHT22;9843;48.882;12.592;2022-10-17T10:30:17;27.90;99.90
19415;DHT22;9843;48.882;12.592;2022-10-17T10:32:47;28.60;99.90
19415;DHT22;9843;48.882;12.592;2022-10-17T10:35:21;30.20;97.00
19415;DHT22;9843;48.882;12.592;2022-10-17T10:37:49;31.50;94.20
19415;DHT22;9843;48.882;12.592;2022-10-17T10:40:19;32.10;89.40
19415;DHT22;9843;48.882;12.592;2022-10-17T10:42:47;31.70;87.70
19415;DHT22;9843;48.882;12.592;2022-10-17T10:45:17;32.80;87.60
19415;DHT22;9843;48.882;12.592;2022-10-17T10:47:52;31.20;81.90
19415;DHT22;9843;48.882;12.592;2022-10-17T10:50:25;32.00;84.50
19415;DHT22;9843;48.882;12.592;2022-10-17T10:53:02;33.40;82.00
19415;DHT22;9843;48.882;12.592;2022-10-17T10:55:34;33.30;77.00
19415;DHT22;9843;48.882;12.592;2022-10-17T10:58:08;34.40;78.00
19415;DHT22;9843;48.882;12.592;2022-10-17T11:00:40;34.80;73.90
19415;DHT22;9843;48.882;12.592;2022-10-17T11:03:14;35.40;69.80
19415;DHT22;9843;48.882;12.592;2022-10-17T11:05:45;35.50;69.60
19415;DHT22;9843;48.882;12.592;2022-10-17T11:08:20;35.60;67.40
19415;DHT22;9843;48.882;12.592;2022-10-17T11:11:06;35.30;66.70
19415;DHT22;9843;48.882;12.592;2022-10-17T11:13:41;35.40;66.90
19415;DHT22;9843;48.882;12.592;2022-10-17T11:16:18;35.40;66.90
19415;DHT22;9843;48.882;12.592;2022-10-17T11:18:52;36.10;68.70
19415;DHT22;9843;48.882;12.592;2022-10-17T11:21:32;36.10;66.50
19415;DHT22;9843;48.882;12.592;2022-10-17T11:24:05;36.20;65.50
19415;DHT22;9843;48.882;12.592;2022-10-17T11:26:37;35.90;65.20
19415;DHT22;9843;48.882;12.592;2022-10-17T11:29:08;35.70;66.70
19415;DHT22;9843;48.882;12.592;2022-10-17T11:31:39;35.20;66.50
19415;DHT22;9843;48.882;12.592;2022-10-17T11:34:13;34.70;68.30
19415;DHT22;9843;48.882;12.592;2022-10-17T11:36:46;34.80;67.90
19415;DHT22;9843;48.882;12.592;2022-10-17T11:39:18;34.50;70.20
19415;DHT22;9843;48.882;12.592;2022-10-17T11:41:48;34.30;68.30
19415;DHT22;9843;48.882;12.592;2022-10-17T11:44:22;33.10;68.50
19415;DHT22;9843;48.882;12.592;2022-10-17T11:46:54;33.10;72.10
19415;DHT22;9843;48.882;12.592;2022-10-17T11:49:27;32.20;70.10
19415;DHT22;9843;48.882;12.592;2022-10-17T11:52:00;32.50;76.00
19415;DHT22;9843;48.882;12.592;2022-10-17T11:54:35;32.30;74.10
19415;DHT22;9843;48.882;12.592;2022-10-17T11:57:15;31.90;73.50
19415;DHT22;9843;48.882;12.592;2022-10-17T12:00:01;31.80;73.50
19415;DHT22;9843;48.882;12.592;2022-10-17T12:02:36;31.30;76.50
19415;DHT22;9843;48.882;12.592;2022-10-17T12:05:15;30.70;75.10
19415;DHT22;9843;48.882;12.592;2022-10-17T12:07:47;30.50;80.40
19415;DHT22;9843;48.882;12.592;2022-10-17T12:10:34;29.80;76.10
19415;DHT22;9843;48.882;12.592;2022-10-17T12:16:36;29.30;78.20
19415;DHT22;9843;48.882;12.592;2022-10-17T12:19:26;29.20;79.60
19415;DHT22;9843;48.882;12.592;2022-10-17T12:22:02;28.40;81.10
19415;DHT22;9843;48.882;12.592;2022-10-17T12:24:36;28.50;82.60
19415;DHT22;9843;48.882;12.592;2022-10-17T12:27:38;28.50;83.10
19415;DHT22;9843;48.882;12.592;2022-10-17T12:30:16;28.10;83.30
19415;DHT22;9843;48.882;12.592;2022-10-17T12:33:05;27.80;80.70
19415;DHT22;9843;48.882;12.592;2022-10-17T12:35:49;27.40;84.70
19415;DHT22;9843;48.882;12.592;2022-10-17T12:38:23;27.40;85.20
19415;DHT22;9843;48.882;12.592;2022-10-17T12:41:02;27.20;83.70
19415;DHT22;9843;48.882;12.592;2022-10-17T12:43:50;27.20;85.50
19415;DHT22;9843;48.882;12.592;2022-10-17T12:46:50;27.10;87.90
19415;DHT22;9843;48.882;12.592;2022-10-17T12:49:36;26.60;85.80
19415;DHT22;9843;48.882;12.592;2022-10-17T12:52:37;26.50;87.10
19415;DHT22;9843;48.882;12.592;2022-10-17T12:55:18;26.70;90.00
19415;DHT22;9843;48.882;12.592;2022-10-17T12:57:55;27.00;88.30
19415;DHT22;9843;48.882;12.592;2022-10-17T13:00:28;26.80;88.20
19415;DHT22;9843;48.882;12.592;2022-10-17T13:03:04;26.30;87.50
19415;DHT22;9843;48.882;12.592;2022-10-17T13:05:34;26.30;90.60
19415;DHT22;9843;48.882;12.592;2022-10-17T13:08:03;26.10;88.40
19415;DHT22;9843;48.882;12.592;2022-10-17T13:10:35;26.70;88.70
19415;DHT22;9843;48.882;12.592;2022-10-17T13:13:12;26.80;88.10
19415;DHT22;9843;48.882;12.592;2022-10-17T13:15:44;27.10;87.10
19415;DHT22;9843;48.882;12.592;2022-10-17T13:18:17;26.80;87.20
19415;DHT22;9843;48.882;12.592;2022-10-17T13:20:54;27.00;89.50
19415;DHT22;9843;48.882;12.592;2022-10-17T13:23:22;27.00;87.70
19415;DHT22;9843;48.882;12.592;2022-10-17T13:26:03;26.90;86.40
19415;DHT22;9843;48.882;12.592;2022-10-17T13:28:30;26.10;86.60
19415;DHT22;9843;48.882;12.592;2022-10-17T13:30:57;26.20;86.80
19415;DHT22;9843;48.882;12.592;2022-10-17T13:33:31;25.50;88.50
19415;DHT22;9843;48.882;12.592;2022-10-17T13:35:58;25.90;90.10
19415;DHT22;9843;48.882;12.592;2022-10-17T13:38:26;26.00;89.80
19415;DHT22;9843;48.882;12.592;2022-10-17T13:40:54;25.90;87.30
19415;DHT22;9843;48.882;12.592;2022-10-17T13:43:22;25.70;90.00
19415;DHT22;9843;48.882;12.592;2022-10-17T13:45:52;25.50;90.80
19415;DHT22;9843;48.882;12.592;2022-10-17T13:48:22;26.10;90.90
19415;DHT22;9843;48.882;12.592;2022-10-17T13:50:52;26.80;88.70
19415;DHT22;9843;48.882;12.592;2022-10-17T13:53:24;27.30;88.60
19415;DHT22;9843;48.882;12.592;2022-10-17T13:55:53;27.50;86.30
19415;DHT22;9843;48.882;12.592;2022-10-17T13:58:22;26.80;85.20
19415;DHT22;9843;48.882;12.592;2022-10-17T14:00:50;26.50;87.50
19415;DHT22;9843;48.882;12.592;2022-10-17T14:03:19;25.90;89.90
19415;DHT22;9843;48.882;12.592;2022-10-17T14:06:10;25.80;90.20
19415;DHT22;9843;48.882;12.592;2022-10-17T14:08:38;26.10;90.40
19415;DHT22;9843;48.882;12.592;2022-10-17T14:11:22;25.50;90.70
19415;DHT22;9843;48.882;12.592;2022-10-17T14:13:52;25.00;92.10
19415;DHT22;9843;48.882;12.592;2022-10-17T14:16:20;24.00;93.70
19415;DHT22;9843;48.882;12.592;2022-10-17T14:18:48;23.90;94.40
19415;DHT22;9843;48.882;12.592;2022-10-17T14:21:21;23.10;95.00
19415;DHT22;9843;48.882;12.592;2022-10-17T14:23:49;23.10;95.80
19415;DHT22;9843;48.882;12.592;2022-10-17T14:26:18;22.90;96.20
19415;DHT22;9843;48.882;12.592;2022-10-17T14:28:48;22.60;96.70
19415;DHT22;9843;48.882;12.592;2022-10-17T14:31:28;22.50;97.30
19415;DHT22;9843;48.882;12.592;2022-10-17T14:33:55;22.40;98.10
19415;DHT22;9843;48.882;12.592;2022-10-17T14:36:31;22.10;98.10
19415;DHT22;9843;48.882;12.592;2022-10-17T14:38:59;21.80;98.80
19415;DHT22;9843;48.882;12.592;2022-10-17T14:41:28;21.70;99.60
19415;DHT22;9843;48.882;12.592;2022-10-17T14:43:58;21.60;99.90
19415;DHT22;9843;48.882;12.592;2022-10-17T14:46:27;21.60;99.90
19415;DHT22;9843;48.882;12.592;2022-10-17T14:48:56;21.50;99.90
19415;DHT22;9843;48.882;12.592;2022-10-17T14:51:24;21.40;99.90
19415;DHT22;9843;48.882;12.592;2022-10-17T14:54:03;21.30;99.90
19415;DHT22;9843;48.882;12.592;2022-10-17T14:56:37;21.10;99.90
19415;DHT22;9843;48.882;12.592;2022-10-17T14:59:04;21.10;99.90
19415;DHT22;9843;48.882;12.592;2022-10-17T15:01:34;21.00;99.90
19415;DHT22;9843;48.882;12.592;2022-10-17T15:04:01;20.90;99.90
19415;DHT22;9843;48.882;12.592;2022-10-17T15:06:30;20.90;99.90
19415;DHT22;9843;48.882;12.592;2022-10-17T15:08:57;20.80;99.90
19415;DHT22;9843;48.882;12.592;2022-10-17T15:11:24;20.80;99.90
19415;DHT22;9843;48.882;12.592;2022-10-17T15:13:51;20.70;99.90
19415;DHT22;9843;48.882;12.592;2022-10-17T15:16:19;20.70;99.90
19415;DHT22;9843;48.882;12.592;2022-10-17T15:18:48;20.60;99.90
19415;DHT22;9843;48.882;12.592;2022-10-17T15:21:17;20.50;99.90
19415;DHT22;9843;48.882;12.592;2022-10-17T15:23:44;20.50;99.90
19415;DHT22;9843;48.882;12.592;2022-10-17T15:26:15;20.40;99.90
19415;DHT22;9843;48.882;12.592;2022-10-17T15:28:43;20.30;99.90
19415;DHT22;9843;48.882;12.592;2022-10-17T15:31:11;20.30;99.90
19415;DHT22;9843;48.882;12.592;2022-10-17T15:33:38;20.20;99.90
19415;DHT22;9843;48.882;12.592;2022-10-17T15:36:20;20.20;99.90
19415;DHT22;9843;48.882;12.592;2022-10-17T15:38:47;20.10;99.90
19415;DHT22;9843;48.882;12.592;2022-10-17T15:41:14;20.10;99.90
19415;DHT22;9843;48.882;12.592;2022-10-17T15:43:41;20.00;99.90
19415;DHT22;9843;48.882;12.592;2022-10-17T15:46:11;20.00;99.90
19415;DHT22;9843;48.882;12.592;2022-10-17T15:48:39;19.90;99.90
19415;DHT22;9843;48.882;12.592;2022-10-17T15:51:07;19.80;99.90
19415;DHT22;9843;48.882;12.592;2022-10-17T15:53:34;19.70;99.90
19415;DHT22;9843;48.882;12.592;2022-10-17T15:56:01;19.60;99.90
19415;DHT22;9843;48.882;12.592;2022-10-17T15:58:32;19.50;99.90